Walker Valley, New York
Current Conditions -  °F | °C
As of 11:11 AM on Thursday 23 Oct 2014 (Local Time) from KMGJ Reporting Station
Light Rain Light Rain  
Wind Chill: 50°   Ceiling: 3300
Heat Index: 50°   Visibility: 10mi
Dew Point: 47°   Wind: 6mph
Humidity: 89%   Direction: 20°NNE
Pressure: 29.76"   Gusts: NA
Location:  41.63°N, 74.38°W
Report Text: KMGJ 231511Z AUTO 02005KT 10SM -RA SCT008 BKN033 OVC041 10/08 A2976 RMK AO2 RAB06 P0000 T01000083 TSNO
Loading
Personal Weather Stations






























Interactive Weather Map
Tropical Storm Tracking
New forecast layout! Learn more

10-Day Weather Forecast

Advertisements
Track Severe Weather on mobile